sensor_id;sensor_type;location;lat;lon;timestamp;pressure;altitude;pressure_sealevel;temperature;humidity
73103;BME280;61294;65.988;29.172;2024-01-15T00:02:06;95754.78;;;-20.54;100.00
73103;BME280;61294;65.988;29.172;2024-01-15T00:04:39;95759.78;;;-20.54;100.00
73103;BME280;61294;65.988;29.172;2024-01-15T00:07:08;95810.88;;;-20.38;100.00
73103;BME280;61294;65.988;29.172;2024-01-15T00:09:35;95790.75;;;-20.40;100.00
73103;BME280;61294;65.988;29.172;2024-01-15T00:12:01;95791.53;;;-20.41;100.00
73103;BME280;61294;65.988;29.172;2024-01-15T00:14:27;95794.13;;;-20.39;100.00
73103;BME280;61294;65.988;29.172;2024-01-15T00:16:54;95801.63;;;-20.39;100.00
73103;BME280;61294;65.988;29.172;2024-01-15T00:19:21;95795.56;;;-20.43;100.00
73103;BME280;61294;65.988;29.172;2024-01-15T00:21:47;95772.41;;;-20.52;100.00
73103;BME280;61294;65.988;29.172;2024-01-15T00:24:14;95788.88;;;-20.56;100.00
73103;BME280;61294;65.988;29.172;2024-01-15T00:26:40;95804.22;;;-20.38;100.00
73103;BME280;61294;65.988;29.172;2024-01-15T00:29:09;95786.31;;;-20.44;100.00
73103;BME280;61294;65.988;29.172;2024-01-15T00:31:35;95819.50;;;-20.35;100.00
73103;BME280;61294;65.988;29.172;2024-01-15T00:34:01;95779.38;;;-20.48;100.00
73103;BME280;61294;65.988;29.172;2024-01-15T00:36:27;95765.09;;;-20.49;100.00
73103;BME280;61294;65.988;29.172;2024-01-15T00:38:53;95815.84;;;-20.26;100.00
73103;BME280;61294;65.988;29.172;2024-01-15T00:41:19;95803.41;;;-20.25;100.00
73103;BME280;61294;65.988;29.172;2024-01-15T00:43:45;95784.31;;;-20.36;100.00
73103;BME280;61294;65.988;29.172;2024-01-15T00:46:11;95786.81;;;-20.36;100.00
73103;BME280;61294;65.988;29.172;2024-01-15T00:48:37;95803.31;;;-20.26;100.00
73103;BME280;61294;65.988;29.172;2024-01-15T00:51:07;95796.78;;;-20.24;100.00
73103;BME280;61294;65.988;29.172;2024-01-15T00:53:33;95774.91;;;-20.27;100.00
73103;BME280;61294;65.988;29.172;2024-01-15T00:55:59;95782.44;;;-20.27;100.00
73103;BME280;61294;65.988;29.172;2024-01-15T00:58:26;95806.75;;;-20.12;100.00
73103;BME280;61294;65.988;29.172;2024-01-15T01:00:52;95751.88;;;-20.35;100.00
73103;BME280;61294;65.988;29.172;2024-01-15T01:03:17;95768.34;;;-20.25;100.00
73103;BME280;61294;65.988;29.172;2024-01-15T01:05:43;95799.84;;;-20.03;100.00
73103;BME280;61294;65.988;29.172;2024-01-15T01:08:10;95805.06;;;-20.00;100.00
73103;BME280;61294;65.988;29.172;2024-01-15T01:10:37;95775.34;;;-20.07;100.00
73103;BME280;61294;65.988;29.172;2024-01-15T01:13:03;95805.34;;;-19.95;100.00
73103;BME280;61294;65.988;29.172;2024-01-15T01:15:29;95804.78;;;-19.91;100.00
73103;BME280;61294;65.988;29.172;2024-01-15T01:17:54;95759.44;;;-20.08;100.00
73103;BME280;61294;65.988;29.172;2024-01-15T01:20:20;95804.59;;;-19.94;100.00
73103;BME280;61294;65.988;29.172;2024-01-15T01:22:46;95771.50;;;-20.02;100.00
73103;BME280;61294;65.988;29.172;2024-01-15T01:25:12;95762.28;;;-20.03;100.00
73103;BME280;61294;65.988;29.172;2024-01-15T01:27:38;95782.31;;;-19.90;100.00
73103;BME280;61294;65.988;29.172;2024-01-15T01:30:05;95757.03;;;-20.06;100.00
73103;BME280;61294;65.988;29.172;2024-01-15T01:32:30;95791.78;;;-19.86;100.00
73103;BME280;61294;65.988;29.172;2024-01-15T01:34:56;95794.38;;;-19.84;100.00
73103;BME280;61294;65.988;29.172;2024-01-15T01:37:22;95734.56;;;-20.18;100.00
73103;BME280;61294;65.988;29.172;2024-01-15T01:39:48;95793.41;;;-19.86;100.00
73103;BME280;61294;65.988;29.172;2024-01-15T01:42:14;95795.63;;;-19.91;100.00
73103;BME280;61294;65.988;29.172;2024-01-15T01:44:40;95761.56;;;-20.01;100.00
73103;BME280;61294;65.988;29.172;2024-01-15T01:47:06;95746.06;;;-20.08;100.00
73103;BME280;61294;65.988;29.172;2024-01-15T01:49:32;95763.50;;;-19.96;100.00
73103;BME280;61294;65.988;29.172;2024-01-15T01:52:00;95795.91;;;-19.86;100.00
73103;BME280;61294;65.988;29.172;2024-01-15T01:54:29;95766.13;;;-19.95;100.00
73103;BME280;61294;65.988;29.172;2024-01-15T01:56:56;95785.13;;;-19.85;100.00
73103;BME280;61294;65.988;29.172;2024-01-15T01:59:23;95767.94;;;-19.92;100.00
73103;BME280;61294;65.988;29.172;2024-01-15T02:01:51;95797.00;;;-19.83;100.00
73103;BME280;61294;65.988;29.172;2024-01-15T02:04:18;95805.59;;;-19.79;100.00
73103;BME280;61294;65.988;29.172;2024-01-15T02:06:44;95766.63;;;-19.87;100.00
73103;BME280;61294;65.988;29.172;2024-01-15T02:09:11;95801.69;;;-19.74;100.00
73103;BME280;61294;65.988;29.172;2024-01-15T02:11:41;95771.44;;;-19.90;100.00
73103;BME280;61294;65.988;29.172;2024-01-15T02:14:08;95794.34;;;-19.71;100.00
73103;BME280;61294;65.988;29.172;2024-01-15T02:16:34;95800.44;;;-19.67;100.00
73103;BME280;61294;65.988;29.172;2024-01-15T02:19:00;95762.75;;;-19.82;100.00
73103;BME280;61294;65.988;29.172;2024-01-15T02:21:26;95748.09;;;-19.76;100.00
73103;BME280;61294;65.988;29.172;2024-01-15T02:23:54;95785.69;;;-19.63;100.00
73103;BME280;61294;65.988;29.172;2024-01-15T02:26:21;95752.22;;;-19.76;100.00
73103;BME280;61294;65.988;29.172;2024-01-15T02:28:48;95783.66;;;-19.68;100.00
73103;BME280;61294;65.988;29.172;2024-01-15T02:31:14;95743.28;;;-19.86;100.00
73103;BME280;61294;65.988;29.172;2024-01-15T02:33:39;95760.81;;;-19.73;100.00
73103;BME280;61294;65.988;29.172;2024-01-15T02:36:07;95767.78;;;-19.69;100.00
73103;BME280;61294;65.988;29.172;2024-01-15T02:38:33;95783.09;;;-19.51;100.00
73103;BME280;61294;65.988;29.172;2024-01-15T02:40:59;95787.34;;;-19.50;100.00
73103;BME280;61294;65.988;29.172;2024-01-15T02:43:25;95784.84;;;-19.50;100.00
73103;BME280;61294;65.988;29.172;2024-01-15T02:45:51;95744.72;;;-19.63;100.00
73103;BME280;61294;65.988;29.172;2024-01-15T02:48:16;95780.00;;;-19.47;100.00
73103;BME280;61294;65.988;29.172;2024-01-15T02:50:42;95781.38;;;-19.52;100.00
73103;BME280;61294;65.988;29.172;2024-01-15T02:53:08;95780.41;;;-19.54;100.00
73103;BME280;61294;65.988;29.172;2024-01-15T02:55:34;95783.00;;;-19.52;100.00
73103;BME280;61294;65.988;29.172;2024-01-15T02:58:00;95781.38;;;-19.52;100.00
73103;BME280;61294;65.988;29.172;2024-01-15T03:00:26;95748.09;;;-19.63;100.00
73103;BME280;61294;65.988;29.172;2024-01-15T03:02:51;95749.34;;;-19.56;100.00
73103;BME280;61294;65.988;29.172;2024-01-15T03:05:17;95792.38;;;-19.36;100.00
73103;BME280;61294;65.988;29.172;2024-01-15T03:07:43;95794.75;;;-19.38;100.00
73103;BME280;61294;65.988;29.172;2024-01-15T03:10:09;95761.22;;;-19.53;100.00
73103;BME280;61294;65.988;29.172;2024-01-15T03:12:35;95791.50;;;-19.37;100.00
73103;BME280;61294;65.988;29.172;2024-01-15T03:15:01;95731.13;;;-19.67;100.00
73103;BME280;61294;65.988;29.172;2024-01-15T03:17:27;95779.63;;;-19.39;100.00
73103;BME280;61294;65.988;29.172;2024-01-15T03:19:52;95771.63;;;-19.47;100.00
73103;BME280;61294;65.988;29.172;2024-01-15T03:22:18;95791.22;;;-19.41;100.00
73103;BME280;61294;65.988;29.172;2024-01-15T03:24:44;95783.59;;;-19.43;100.00
73103;BME280;61294;65.988;29.172;2024-01-15T03:27:10;95796.69;;;-19.34;100.00
73103;BME280;61294;65.988;29.172;2024-01-15T03:29:36;95771.16;;;-19.41;100.00
73103;BME280;61294;65.988;29.172;2024-01-15T03:32:02;95767.66;;;-19.43;100.00
73103;BME280;61294;65.988;29.172;2024-01-15T03:34:28;95808.00;;;-19.27;100.00
73103;BME280;61294;65.988;29.172;2024-01-15T03:36:54;95740.00;;;-19.58;100.00
73103;BME280;61294;65.988;29.172;2024-01-15T03:39:19;95783.66;;;-19.28;100.00
73103;BME280;61294;65.988;29.172;2024-01-15T03:41:45;95798.91;;;-19.25;100.00
73103;BME280;61294;65.988;29.172;2024-01-15T03:44:11;95740.84;;;-19.58;100.00
73103;BME280;61294;65.988;29.172;2024-01-15T03:46:37;95795.63;;;-19.24;100.00
73103;BME280;61294;65.988;29.172;2024-01-15T03:49:03;95753.00;;;-19.37;100.00
73103;BME280;61294;65.988;29.172;2024-01-15T03:51:28;95759.88;;;-19.35;100.00
73103;BME280;61294;65.988;29.172;2024-01-15T03:53:54;95790.22;;;-19.17;100.00
73103;BME280;61294;65.988;29.172;2024-01-15T03:56:20;95764.59;;;-19.26;100.00
73103;BME280;61294;65.988;29.172;2024-01-15T03:58:46;95757.72;;;-19.29;100.00
73103;BME280;61294;65.988;29.172;2024-01-15T04:01:12;95776.72;;;-19.19;100.00
73103;BME280;61294;65.988;29.172;2024-01-15T04:03:37;95797.34;;;-19.09;100.00
73103;BME280;61294;65.988;29.172;2024-01-15T04:06:04;95771.63;;;-19.20;100.00
73103;BME280;61294;65.988;29.172;2024-01-15T04:08:30;95777.69;;;-19.17;100.00
73103;BME280;61294;65.988;29.172;2024-01-15T04:10:55;95752.03;;;-19.26;100.00
73103;BME280;61294;65.988;29.172;2024-01-15T04:13:21;95785.88;;;-19.06;100.00
73103;BME280;61294;65.988;29.172;2024-01-15T04:15:48;95778.28;;;-19.07;100.00
73103;BME280;61294;65.988;29.172;2024-01-15T04:18:16;95765.13;;;-19.17;100.00
73103;BME280;61294;65.988;29.172;2024-01-15T04:20:43;95796.28;;;-19.00;100.00
73103;BME280;61294;65.988;29.172;2024-01-15T04:23:09;95763.03;;;-19.10;100.00
73103;BME280;61294;65.988;29.172;2024-01-15T04:25:35;95802.56;;;-18.93;100.00
73103;BME280;61294;65.988;29.172;2024-01-15T04:28:01;95770.06;;;-19.05;100.00
73103;BME280;61294;65.988;29.172;2024-01-15T04:30:26;95794.19;;;-18.93;100.00
73103;BME280;61294;65.988;29.172;2024-01-15T04:32:52;95757.22;;;-19.09;100.00
73103;BME280;61294;65.988;29.172;2024-01-15T04:35:18;95792.72;;;-18.90;100.00
73103;BME280;61294;65.988;29.172;2024-01-15T04:37:44;95801.09;;;-18.89;100.00
73103;BME280;61294;65.988;29.172;2024-01-15T04:40:10;95796.06;;;-18.89;100.00
73103;BME280;61294;65.988;29.172;2024-01-15T04:42:36;95777.09;;;-18.99;100.00
73103;BME280;61294;65.988;29.172;2024-01-15T04:45:02;95764.34;;;-19.02;100.00
73103;BME280;61294;65.988;29.172;2024-01-15T04:47:28;95788.38;;;-18.92;100.00
73103;BME280;61294;65.988;29.172;2024-01-15T04:49:54;95769.38;;;-19.02;100.00
73103;BME280;61294;65.988;29.172;2024-01-15T04:52:20;95801.97;;;-18.89;100.00
73103;BME280;61294;65.988;29.172;2024-01-15T04:54:46;95772.50;;;-19.06;100.00
73103;BME280;61294;65.988;29.172;2024-01-15T04:57:12;95775.94;;;-19.04;100.00
73103;BME280;61294;65.988;29.172;2024-01-15T04:59:37;95799.72;;;-18.84;100.00
73103;BME280;61294;65.988;29.172;2024-01-15T05:02:03;95803.00;;;-18.85;100.00
73103;BME280;61294;65.988;29.172;2024-01-15T05:04:29;95776.13;;;-19.01;100.00
73103;BME280;61294;65.988;29.172;2024-01-15T05:06:55;95768.97;;;-18.95;100.00
73103;BME280;61294;65.988;29.172;2024-01-15T05:09:21;95752.00;;;-18.99;100.00
73103;BME280;61294;65.988;29.172;2024-01-15T05:11:47;95791.00;;;-18.76;100.00
73103;BME280;61294;65.988;29.172;2024-01-15T05:14:13;95759.91;;;-18.93;100.00
73103;BME280;61294;65.988;29.172;2024-01-15T05:16:39;95790.84;;;-18.79;100.00
73103;BME280;61294;65.988;29.172;2024-01-15T05:19:07;95795.06;;;-18.78;100.00
73103;BME280;61294;65.988;29.172;2024-01-15T05:21:33;95761.56;;;-18.93;100.00
73103;BME280;61294;65.988;29.172;2024-01-15T05:23:59;95759.91;;;-18.93;100.00
73103;BME280;61294;65.988;29.172;2024-01-15T05:26:25;95804.25;;;-18.79;100.00
73103;BME280;61294;65.988;29.172;2024-01-15T05:28:50;95791.59;;;-18.80;100.00
73103;BME280;61294;65.988;29.172;2024-01-15T05:31:16;95787.25;;;-18.83;100.00
73103;BME280;61294;65.988;29.172;2024-01-15T05:33:42;95758.84;;;-18.97;100.00
73103;BME280;61294;65.988;29.172;2024-01-15T05:36:08;95793.94;;;-18.83;100.00
73103;BME280;61294;65.988;29.172;2024-01-15T05:38:34;95754.78;;;-19.08;100.00
73103;BME280;61294;65.988;29.172;2024-01-15T05:40:59;95796.19;;;-18.88;100.00
73103;BME280;61294;65.988;29.172;2024-01-15T05:43:25;95791.94;;;-18.89;100.00
73103;BME280;61294;65.988;29.172;2024-01-15T05:45:51;95780.97;;;-19.04;100.00
73103;BME280;61294;65.988;29.172;2024-01-15T05:48:17;95769.44;;;-19.01;100.00
73103;BME280;61294;65.988;29.172;2024-01-15T05:50:43;95805.59;;;-18.84;100.00
73103;BME280;61294;65.988;29.172;2024-01-15T05:53:09;95782.97;;;-18.99;100.00
73103;BME280;61294;65.988;29.172;2024-01-15T05:55:36;95813.03;;;-18.85;100.00
73103;BME280;61294;65.988;29.172;2024-01-15T05:58:02;95792.25;;;-18.98;100.00
73103;BME280;61294;65.988;29.172;2024-01-15T06:00:28;95824.72;;;-18.86;100.00
73103;BME280;61294;65.988;29.172;2024-01-15T06:02:54;95781.34;;;-19.12;100.00
73103;BME280;61294;65.988;29.172;2024-01-15T06:05:20;95826.31;;;-18.88;100.00
73103;BME280;61294;65.988;29.172;2024-01-15T06:07:46;95779.59;;;-19.13;100.00
73103;BME280;61294;65.988;29.172;2024-01-15T06:10:12;95822.16;;;-18.87;100.00
73103;BME280;61294;65.988;29.172;2024-01-15T06:12:38;95793.50;;;-19.04;100.00
73103;BME280;61294;65.988;29.172;2024-01-15T06:15:04;95772.97;;;-19.12;100.00
73103;BME280;61294;65.988;29.172;2024-01-15T06:17:29;95783.66;;;-19.01;100.00
73103;BME280;61294;65.988;29.172;2024-01-15T06:19:56;95824.56;;;-18.89;100.00
73103;BME280;61294;65.988;29.172;2024-01-15T06:22:23;95823.00;;;-18.87;100.00
73103;BME280;61294;65.988;29.172;2024-01-15T06:24:49;95814.78;;;-18.84;100.00
73103;BME280;61294;65.988;29.172;2024-01-15T06:27:14;95825.66;;;-18.84;100.00
73103;BME280;61294;65.988;29.172;2024-01-15T06:29:45;95824.13;;;-18.82;100.00
73103;BME280;61294;65.988;29.172;2024-01-15T06:32:12;95825.75;;;-18.82;100.00
73103;BME280;61294;65.988;29.172;2024-01-15T06:34:38;95797.94;;;-19.00;100.00
73103;BME280;61294;65.988;29.172;2024-01-15T06:37:05;95819.56;;;-18.89;100.00
73103;BME280;61294;65.988;29.172;2024-01-15T06:39:31;95766.88;;;-19.16;100.00
73103;BME280;61294;65.988;29.172;2024-01-15T06:41:56;95822.22;;;-18.86;100.00
73103;BME280;61294;65.988;29.172;2024-01-15T06:44:22;95826.19;;;-18.89;100.00
73103;BME280;61294;65.988;29.172;2024-01-15T06:46:48;95796.00;;;-19.04;100.00
73103;BME280;61294;65.988;29.172;2024-01-15T06:49:14;95792.34;;;-19.09;100.00
73103;BME280;61294;65.988;29.172;2024-01-15T06:51:40;95833.63;;;-18.91;100.00
73103;BME280;61294;65.988;29.172;2024-01-15T06:54:06;95825.53;;;-18.87;100.00
73103;BME280;61294;65.988;29.172;2024-01-15T06:56:32;95802.88;;;-19.02;100.00
73103;BME280;61294;65.988;29.172;2024-01-15T06:58:58;95838.53;;;-18.79;100.00
73103;BME280;61294;65.988;29.172;2024-01-15T07:01:24;95832.22;;;-18.72;100.00
73103;BME280;61294;65.988;29.172;2024-01-15T07:03:49;95791.19;;;-18.88;100.00
73103;BME280;61294;65.988;29.172;2024-01-15T07:06:15;95817.38;;;-18.69;100.00
73103;BME280;61294;65.988;29.172;2024-01-15T07:08:42;95830.28;;;-18.63;100.00
73103;BME280;61294;65.988;29.172;2024-01-15T07:11:08;95796.63;;;-18.80;100.00
73103;BME280;61294;65.988;29.172;2024-01-15T07:13:36;95831.22;;;-18.61;100.00
73103;BME280;61294;65.988;29.172;2024-01-15T07:16:02;95832.78;;;-18.63;100.00
73103;BME280;61294;65.988;29.172;2024-01-15T07:18:28;95803.84;;;-18.71;100.00
73103;BME280;61294;65.988;29.172;2024-01-15T07:20:53;95848.31;;;-18.55;100.00
73103;BME280;61294;65.988;29.172;2024-01-15T07:23:19;95805.50;;;-18.72;100.00
73103;BME280;61294;65.988;29.172;2024-01-15T07:25:45;95803.75;;;-18.73;100.00
73103;BME280;61294;65.988;29.172;2024-01-15T07:28:11;95810.13;;;-18.78;100.00
73103;BME280;61294;65.988;29.172;2024-01-15T07:30:37;95842.63;;;-18.53;100.00
73103;BME280;61294;65.988;29.172;2024-01-15T07:33:05;95809.22;;;-18.65;100.00
73103;BME280;61294;65.988;29.172;2024-01-15T07:35:31;95835.94;;;-18.52;100.00
73103;BME280;61294;65.988;29.172;2024-01-15T07:37:57;95849.75;;;-18.46;100.00
73103;BME280;61294;65.988;29.172;2024-01-15T07:40:23;95848.22;;;-18.44;100.00
73103;BME280;61294;65.988;29.172;2024-01-15T07:42:51;95828.41;;;-18.52;100.00
73103;BME280;61294;65.988;29.172;2024-01-15T07:45:17;95856.88;;;-18.38;100.00
73103;BME280;61294;65.988;29.172;2024-01-15T07:47:43;95816.56;;;-18.55;100.00
73103;BME280;61294;65.988;29.172;2024-01-15T07:50:09;95821.75;;;-18.52;100.00
73103;BME280;61294;65.988;29.172;2024-01-15T07:52:35;95831.50;;;-18.43;100.00
73103;BME280;61294;65.988;29.172;2024-01-15T07:55:01;95848.94;;;-18.31;100.00
73103;BME280;61294;65.988;29.172;2024-01-15T07:57:29;95865.84;;;-18.29;100.00
73103;BME280;61294;65.988;29.172;2024-01-15T07:59:55;95857.63;;;-18.26;100.00
73103;BME280;61294;65.988;29.172;2024-01-15T08:02:20;95861.66;;;-18.28;100.00
73103;BME280;61294;65.988;29.172;2024-01-15T08:04:47;95848.59;;;-18.22;100.00
73103;BME280;61294;65.988;29.172;2024-01-15T08:07:13;95816.69;;;-18.38;100.00
73103;BME280;61294;65.988;29.172;2024-01-15T08:09:39;95817.38;;;-18.41;100.00
73103;BME280;61294;65.988;29.172;2024-01-15T08:12:05;95855.84;;;-18.14;100.00
73103;BME280;61294;65.988;29.172;2024-01-15T08:14:31;95839.81;;;-18.16;100.00
73103;BME280;61294;65.988;29.172;2024-01-15T08:16:57;95859.66;;;-18.05;100.00
73103;BME280;61294;65.988;29.172;2024-01-15T08:19:23;95818.38;;;-18.24;100.00
73103;BME280;61294;65.988;29.172;2024-01-15T08:21:49;95792.47;;;-18.38;100.00
73103;BME280;61294;65.988;29.172;2024-01-15T08:24:15;95854.13;;;-18.00;100.00
73103;BME280;61294;65.988;29.172;2024-01-15T08:26:41;95824.91;;;-18.13;100.00
73103;BME280;61294;65.988;29.172;2024-01-15T08:29:06;95850.09;;;-17.98;100.00
73103;BME280;61294;65.988;29.172;2024-01-15T08:31:32;95841.56;;;-18.00;100.00
73103;BME280;61294;65.988;29.172;2024-01-15T08:33:58;95858.19;;;-17.87;100.00
73103;BME280;61294;65.988;29.172;2024-01-15T08:36:25;95870.88;;;-17.85;100.00
73103;BME280;61294;65.988;29.172;2024-01-15T08:38:50;95865.25;;;-17.81;100.00
73103;BME280;61294;65.988;29.172;2024-01-15T08:41:16;95871.16;;;-17.81;100.00
73103;BME280;61294;65.988;29.172;2024-01-15T08:43:42;95834.31;;;-17.95;100.00
73103;BME280;61294;65.988;29.172;2024-01-15T08:46:08;95871.41;;;-17.76;100.00
73103;BME280;61294;65.988;29.172;2024-01-15T08:48:34;95872.34;;;-17.74;100.00
73103;BME280;61294;65.988;29.172;2024-01-15T08:51:00;95861.63;;;-17.72;100.00
73103;BME280;61294;65.988;29.172;2024-01-15T08:53:26;95835.50;;;-17.89;100.00
73103;BME280;61294;65.988;29.172;2024-01-15T08:55:52;95872.81;;;-17.66;100.00
73103;BME280;61294;65.988;29.172;2024-01-15T08:58:18;95819.56;;;-17.89;100.00
73103;BME280;61294;65.988;29.172;2024-01-15T09:00:44;95858.69;;;-17.64;100.00
73103;BME280;61294;65.988;29.172;2024-01-15T09:03:09;95871.63;;;-17.58;100.00
73103;BME280;61294;65.988;29.172;2024-01-15T09:05:35;95838.38;;;-17.67;100.00
73103;BME280;61294;65.988;29.172;2024-01-15T09:08:01;95874.56;;;-17.50;100.00
73103;BME280;61294;65.988;29.172;2024-01-15T09:10:27;95811.06;;;-17.76;100.00
73103;BME280;61294;65.988;29.172;2024-01-15T09:12:53;95823.28;;;-17.67;100.00
73103;BME280;61294;65.988;29.172;2024-01-15T09:15:19;95838.94;;;-17.58;100.00
73103;BME280;61294;65.988;29.172;2024-01-15T09:17:45;95862.34;;;-17.44;100.00
73103;BME280;61294;65.988;29.172;2024-01-15T09:20:11;95832.16;;;-17.59;100.00
73103;BME280;61294;65.988;29.172;2024-01-15T09:22:40;95822.34;;;-17.69;100.00
73103;BME280;61294;65.988;29.172;2024-01-15T09:25:10;95859.06;;;-17.43;100.00
73103;BME280;61294;65.988;29.172;2024-01-15T09:27:36;95838.41;;;-17.52;100.00
73103;BME280;61294;65.988;29.172;2024-01-15T09:30:05;95834.84;;;-17.56;100.00
73103;BME280;61294;65.988;29.172;2024-01-15T09:32:31;95863.66;;;-17.36;100.00
73103;BME280;61294;65.988;29.172;2024-01-15T09:34:58;95877.88;;;-17.37;100.00
73103;BME280;61294;65.988;29.172;2024-01-15T09:37:24;95868.75;;;-17.34;100.00
73103;BME280;61294;65.988;29.172;2024-01-15T09:39:50;95875.78;;;-17.29;100.00
73103;BME280;61294;65.988;29.172;2024-01-15T09:42:16;95835.56;;;-17.44;100.00
73103;BME280;61294;65.988;29.172;2024-01-15T09:44:42;95869.31;;;-17.25;100.00
73103;BME280;61294;65.988;29.172;2024-01-15T09:47:09;95846.81;;;-17.37;100.00
73103;BME280;61294;65.988;29.172;2024-01-15T09:49:35;95843.44;;;-17.38;100.00
73103;BME280;61294;65.988;29.172;2024-01-15T09:52:02;95839.34;;;-17.35;100.00
73103;BME280;61294;65.988;29.172;2024-01-15T09:54:28;95836.94;;;-17.34;100.00
73103;BME280;61294;65.988;29.172;2024-01-15T09:56:55;95883.44;;;-17.12;100.00
73103;BME280;61294;65.988;29.172;2024-01-15T09:59:22;95857.50;;;-17.26;100.00
73103;BME280;61294;65.988;29.172;2024-01-15T10:01:50;95890.31;;;-17.10;100.00
73103;BME280;61294;65.988;29.172;2024-01-15T10:04:17;95852.78;;;-17.20;100.00
73103;BME280;61294;65.988;29.172;2024-01-15T10:06:46;95852.19;;;-17.16;100.00
73103;BME280;61294;65.988;29.172;2024-01-15T10:09:13;95836.59;;;-17.25;100.00
73103;BME280;61294;65.988;29.172;2024-01-15T10:11:43;95853.25;;;-17.12;100.00
73103;BME280;61294;65.988;29.172;2024-01-15T10:14:10;95822.88;;;-17.30;100.00
73103;BME280;61294;65.988;29.172;2024-01-15T10:16:39;95882.81;;;-16.93;100.00
73103;BME280;61294;65.988;29.172;2024-01-15T10:19:05;95843.16;;;-17.12;100.00
73103;BME280;61294;65.988;29.172;2024-01-15T10:21:32;95881.16;;;-16.93;100.00
73103;BME280;61294;65.988;29.172;2024-01-15T10:24:02;95854.25;;;-17.09;100.00
73103;BME280;61294;65.988;29.172;2024-01-15T10:26:28;95888.97;;;-16.88;100.00
73103;BME280;61294;65.988;29.172;2024-01-15T10:28:54;95850.97;;;-17.08;100.00
73103;BME280;61294;65.988;29.172;2024-01-15T10:31:20;95850.44;;;-17.02;100.00
73103;BME280;61294;65.988;29.172;2024-01-15T10:33:50;95810.69;;;-17.23;100.00
73103;BME280;61294;65.988;29.172;2024-01-15T10:36:17;95877.28;;;-16.86;100.00
73103;BME280;61294;65.988;29.172;2024-01-15T10:38:46;95870.38;;;-16.90;100.00
73103;BME280;61294;65.988;29.172;2024-01-15T10:41:12;95866.56;;;-16.98;100.00
73103;BME280;61294;65.988;29.172;2024-01-15T10:43:38;95880.88;;;-16.82;100.00
73103;BME280;61294;65.988;29.172;2024-01-15T10:46:07;95882.50;;;-16.83;100.00
73103;BME280;61294;65.988;29.172;2024-01-15T10:48:33;95892.66;;;-16.81;100.00
73103;BME280;61294;65.988;29.172;2024-01-15T10:51:01;95892.56;;;-16.83;100.00
73103;BME280;61294;65.988;29.172;2024-01-15T10:53:29;95868.28;;;-16.82;100.00
73103;BME280;61294;65.988;29.172;2024-01-15T10:55:57;95877.47;;;-16.83;100.00
73103;BME280;61294;65.988;29.172;2024-01-15T10:58:24;95874.88;;;-16.85;100.00
73103;BME280;61294;65.988;29.172;2024-01-15T11:00:53;95884.41;;;-16.79;100.00
73103;BME280;61294;65.988;29.172;2024-01-15T11:03:19;95881.19;;;-16.76;100.00
73103;BME280;61294;65.988;29.172;2024-01-15T11:05:46;95882.84;;;-16.77;100.00
73103;BME280;61294;65.988;29.172;2024-01-15T11:08:13;95850.94;;;-16.93;100.00
73103;BME280;61294;65.988;29.172;2024-01-15T11:10:51;95840.63;;;-16.97;100.00
73103;BME280;61294;65.988;29.172;2024-01-15T11:13:22;95882.06;;;-16.76;100.00
73103;BME280;61294;65.988;29.172;2024-01-15T11:15:57;95847.56;;;-16.93;100.00
73103;BME280;61294;65.988;29.172;2024-01-15T11:18:23;95834.81;;;-16.96;100.00
73103;BME280;61294;65.988;29.172;2024-01-15T11:23:44;95845.91;;;-16.93;100.00
73103;BME280;61294;65.988;29.172;2024-01-15T11:26:30;95865.69;;;-16.84;100.00
73103;BME280;61294;65.988;29.172;2024-01-15T11:28:59;95853.56;;;-16.91;100.00
73103;BME280;61294;65.988;29.172;2024-01-15T11:31:29;95874.34;;;-16.79;100.00
73103;BME280;61294;65.988;29.172;2024-01-15T11:33:55;95862.06;;;-16.89;100.00
73103;BME280;61294;65.988;29.172;2024-01-15T11:36:52;95890.34;;;-16.78;100.00
73103;BME280;61294;65.988;29.172;2024-01-15T11:42:02;95873.31;;;-16.82;100.00
73103;BME280;61294;65.988;29.172;2024-01-15T11:44:31;95864.50;;;-16.91;100.00
73103;BME280;61294;65.988;29.172;2024-01-15T11:47:08;95885.19;;;-16.80;100.00
73103;BME280;61294;65.988;29.172;2024-01-15T11:52:11;95869.13;;;-16.82;100.00
73103;BME280;61294;65.988;29.172;2024-01-15T11:54:42;95841.22;;;-17.02;100.00
73103;BME280;61294;65.988;29.172;2024-01-15T11:57:15;95881.72;;;-16.82;100.00
73103;BME280;61294;65.988;29.172;2024-01-15T11:59:45;95882.34;;;-16.86;100.00
73103;BME280;61294;65.988;29.172;2024-01-15T12:02:11;95870.47;;;-16.89;100.00
73103;BME280;61294;65.988;29.172;2024-01-15T12:04:38;95840.38;;;-17.02;100.00
73103;BME280;61294;65.988;29.172;2024-01-15T12:07:05;95874.00;;;-16.85;100.00
73103;BME280;61294;65.988;29.172;2024-01-15T12:09:30;95877.47;;;-16.83;100.00
73103;BME280;61294;65.988;29.172;2024-01-15T12:12:03;95865.44;;;-16.89;100.00
73103;BME280;61294;65.988;29.172;2024-01-15T12:14:33;95865.44;;;-16.89;100.00
73103;BME280;61294;65.988;29.172;2024-01-15T12:17:00;95879.03;;;-16.85;100.00
73103;BME280;61294;65.988;29.172;2024-01-15T12:19:26;95879.81;;;-16.86;100.00
73103;BME280;61294;65.988;29.172;2024-01-15T12:21:51;95881.56;;;-16.85;100.00
73103;BME280;61294;65.988;29.172;2024-01-15T12:24:17;95811.13;;;-17.15;100.00
73103;BME280;61294;65.988;29.172;2024-01-15T12:26:44;95865.47;;;-16.87;100.00
73103;BME280;61294;65.988;29.172;2024-01-15T12:29:11;95837.69;;;-17.05;100.00
73103;BME280;61294;65.988;29.172;2024-01-15T12:31:37;95840.13;;;-17.07;100.00
73103;BME280;61294;65.988;29.172;2024-01-15T12:34:02;95846.19;;;-17.03;100.00
73103;BME280;61294;65.988;29.172;2024-01-15T12:36:32;95834.13;;;-17.09;100.00